Time;durP1;ratioP1;P1;durP2;ratioP2;P2;SDS_P1;SDS_P2;PMS_P1;PMS_P2;Temp;Humidity;BMP_temperature;BMP_pressure;BME280_temperature;BME280_humidity;BME280_pressure;Samples;Min_cycle;Max_cycle;Signal;HPM_P1;HPM_P2
2021/08/27 00:01:29;;;;;;;8.85;4.80;;;;;;;18.01;71.72;99986.16;1700840;82;21204;-68
2021/08/27 00:03:56;;;;;;;9.28;4.80;;;;;;;17.97;71.74;99983.52;1711745;81;21161;-68
2021/08/27 00:06:22;;;;;;;8.83;4.78;;;;;;;17.88;71.81;99985.43;1695620;82;21191;-68
2021/08/27 00:08:49;;;;;;;8.60;4.20;;;;;;;17.86;71.95;99993.25;1696244;82;21186;-69
2021/08/27 00:11:17;;;;;;;6.70;3.75;;;;;;;17.86;71.96;100002.56;1679728;83;22019;-69
2021/08/27 00:13:44;;;;;;;7.25;4.37;;;;;;;17.81;71.84;100003.92;1707646;82;21033;-69
2021/08/27 00:16:11;;;;;;;8.18;4.58;;;;;;;17.74;71.99;100003.50;1726819;81;21545;-69
2021/08/27 00:18:38;;;;;;;7.65;4.87;;;;;;;17.68;72.37;100008.20;1719958;80;21065;-70
2021/08/27 00:21:05;;;;;;;8.70;4.35;;;;;;;17.61;72.59;100014.22;1713278;82;21060;-69
2021/08/27 00:23:31;;;;;;;8.63;4.28;;;;;;;17.50;72.73;100011.99;1698958;81;21049;-70
2021/08/27 00:25:58;;;;;;;8.85;3.50;;;;;;;17.42;72.82;100017.36;1736866;81;21065;-69
2021/08/27 00:28:24;;;;;;;8.70;3.67;;;;;;;17.41;72.96;100015.70;1723026;80;21070;-69
2021/08/27 00:30:51;;;;;;;6.97;3.90;;;;;;;17.40;73.07;100011.38;1717984;81;21093;-70
2021/08/27 00:33:17;;;;;;;6.87;4.00;;;;;;;17.42;73.18;100014.70;1705108;83;21153;-69
2021/08/27 00:35:44;;;;;;;8.48;3.87;;;;;;;17.41;73.21;100015.19;1706369;82;21742;-69
2021/08/27 00:38:14;;;;;;;6.22;3.95;;;;;;;17.39;73.35;100019.04;1726056;80;21073;-70
2021/08/27 00:40:40;;;;;;;6.70;3.37;;;;;;;17.32;73.40;100017.59;1725745;80;21086;-70
2021/08/27 00:43:11;;;;;;;6.47;4.12;;;;;;;17.24;73.65;100017.63;1725729;81;21514;-70
2021/08/27 00:45:45;;;;;;;5.72;3.45;;;;;;;17.17;73.71;100014.84;1720396;80;21048;-69
2021/08/27 00:48:16;;;;;;;7.95;3.20;;;;;;;17.16;73.78;100025.66;1702271;82;21122;-70
2021/08/27 00:50:48;;;;;;;5.97;3.47;;;;;;;17.15;74.04;100031.48;1723949;80;21588;-70
2021/08/27 00:53:15;;;;;;;5.70;3.80;;;;;;;17.16;74.20;100029.64;1701148;82;21077;-70
2021/08/27 00:55:44;;;;;;;5.60;3.42;;;;;;;17.13;74.30;100027.33;1701605;82;21119;-69
2021/08/27 00:58:10;;;;;;;7.08;4.10;;;;;;;17.10;74.38;100019.22;1705559;81;21573;-69
2021/08/27 01:00:37;;;;;;;5.95;3.55;;;;;;;17.05;74.49;100022.89;1685532;82;21142;-69
2021/08/27 01:03:03;;;;;;;6.03;3.80;;;;;;;17.11;74.79;100017.38;1663691;83;21675;-69
2021/08/27 01:05:31;;;;;;;7.62;3.90;;;;;;;17.24;74.50;100014.47;1661710;84;21186;-70
2021/08/27 01:08:10;;;;;;;6.50;3.42;;;;;;;17.34;74.20;100022.22;1637946;86;21589;-70
2021/08/27 01:10:44;;;;;;;9.43;3.70;;;;;;;17.44;73.96;100024.15;1693488;82;21019;-70
2021/08/27 01:13:31;;;;;;;;;;;;;;;17.51;73.86;100023.45;1726837;81;21109;-69
2021/08/27 01:16:06;;;;;;;7.85;3.27;;;;;;;17.51;73.27;100022.94;1684855;83;20247;-69
2021/08/27 01:19:09;;;;;;;7.33;2.85;;;;;;;17.44;73.53;100016.68;1698725;82;21031;-69
2021/08/27 01:22:10;;;;;;;7.55;3.60;;;;;;;17.44;73.48;100016.68;1700594;82;21272;-69
2021/08/27 01:24:37;;;;;;;7.20;3.90;;;;;;;17.47;73.19;100016.33;1682747;82;21582;-70
2021/08/27 01:27:05;;;;;;;6.87;3.45;;;;;;;17.45;72.91;100015.69;1694432;82;21113;-70
2021/08/27 01:30:03;;;;;;;6.75;3.85;;;;;;;17.40;72.79;100013.55;1696031;82;21122;-71
2021/08/27 01:33:03;;;;;;;7.92;3.80;;;;;;;17.34;73.05;100010.25;1702016;82;21089;-69
2021/08/27 01:35:31;;;;;;;5.97;3.50;;;;;;;17.32;73.60;100011.45;1692034;82;21066;-69
2021/08/27 01:37:58;;;;;;;5.67;3.15;;;;;;;17.29;73.58;100008.62;1714888;82;21129;-70
2021/08/27 01:40:25;;;;;;;6.22;3.70;;;;;;;17.31;73.33;100007.13;1721267;81;21185;-69
2021/08/27 01:42:51;;;;;;;6.35;3.60;;;;;;;17.30;73.16;100002.31;1708418;80;21082;-69
2021/08/27 01:45:18;;;;;;;5.67;2.75;;;;;;;17.30;73.10;100006.78;1690167;81;21121;-69
2021/08/27 01:47:45;;;;;;;6.53;3.27;;;;;;;17.29;73.18;100001.16;1718134;81;21122;-70
2021/08/27 01:50:12;;;;;;;7.55;4.10;;;;;;;17.23;73.15;99999.53;1697982;81;21152;-70
2021/08/27 01:52:40;;;;;;;6.15;3.65;;;;;;;17.15;73.25;99998.25;1721949;80;21479;-71
2021/08/27 01:55:09;;;;;;;7.35;4.58;;;;;;;17.11;73.56;99992.94;1719642;80;20999;-70
2021/08/27 01:57:36;;;;;;;7.12;3.17;;;;;;;17.13;73.72;99994.95;1713476;81;21521;-69
2021/08/27 02:00:06;;;;;;;6.22;3.65;;;;;;;17.19;73.65;99983.59;1703941;81;21023;-70
2021/08/27 02:02:33;;;;;;;6.53;3.25;;;;;;;17.31;73.18;99989.84;1698035;82;21111;-69
2021/08/27 02:05:02;;;;;;;5.65;3.33;;;;;;;17.36;72.87;99990.14;1712309;82;21062;-70
2021/08/27 02:07:29;;;;;;;6.97;4.15;;;;;;;17.35;72.75;99990.64;1707596;81;21165;-71
2021/08/27 02:09:56;;;;;;;6.45;3.50;;;;;;;17.35;72.81;99998.63;1715912;82;21078;-70
2021/08/27 02:12:24;;;;;;;7.12;3.15;;;;;;;17.33;72.78;99999.31;1705622;83;21918;-71
2021/08/27 02:14:55;;;;;;;6.00;3.50;;;;;;;17.31;72.53;100009.78;1685502;83;21156;-71
2021/08/27 02:17:24;;;;;;;7.33;3.47;;;;;;;17.25;72.41;100019.30;1688203;82;21116;-73
2021/08/27 02:19:52;;;;;;;7.30;3.47;;;;;;;17.19;72.54;100026.64;1688587;82;21125;-71
2021/08/27 02:22:19;;;;;;;7.75;3.40;;;;;;;17.17;72.55;100034.78;1671530;83;21572;-71
2021/08/27 02:25:09;;;;;;;6.37;3.60;;;;;;;17.15;72.55;100038.13;1670075;83;21094;-72
2021/08/27 02:27:38;;;;;;;9.43;3.92;;;;;;;17.15;72.47;100039.45;1697300;82;21558;-70
2021/08/27 02:30:08;;;;;;;7.28;4.25;;;;;;;17.05;72.35;100040.17;1690777;82;21274;-71
2021/08/27 02:32:34;;;;;;;7.87;3.62;;;;;;;16.95;72.48;100040.89;1710969;81;21074;-72
2021/08/27 02:35:02;;;;;;;7.05;3.70;;;;;;;16.83;72.87;100041.22;1715192;81;21698;-69
2021/08/27 02:37:32;;;;;;;6.05;3.58;;;;;;;16.76;73.09;100043.40;1721210;80;21052;-71
2021/08/27 02:39:58;;;;;;;7.12;3.30;;;;;;;16.74;73.24;100043.56;1692094;82;21031;-69
2021/08/27 02:42:30;;;;;;;9.90;3.67;;;;;;;16.74;73.17;100050.20;1699230;82;21918;-71
2021/08/27 02:45:01;;;;;;;7.40;3.77;;;;;;;16.67;73.40;100054.55;1700041;82;22321;-71
2021/08/27 02:47:28;;;;;;;7.33;3.77;;;;;;;16.60;73.69;100054.92;1701498;82;21054;-70
2021/08/27 02:49:55;;;;;;;6.65;3.83;;;;;;;16.55;73.99;100056.75;1680389;83;21180;-71
2021/08/27 02:52:36;;;;;;;10.35;4.72;;;;;;;16.58;73.92;100062.23;1712876;81;21085;-71
2021/08/27 02:55:21;;;;;;;4.92;2.58;;;;;;;16.63;73.76;100061.22;1667466;84;21117;-69
2021/08/27 02:58:07;;;;;;;6.47;4.40;;;;;;;16.66;73.62;100069.67;1663488;84;21182;-71
2021/08/27 03:00:52;;;;;;;8.50;4.22;;;;;;;16.63;73.52;100070.52;1658180;83;21715;-69
2021/08/27 03:03:22;;;;;;;7.57;4.27;;;;;;;16.58;73.57;100070.20;1705721;81;21125;-72
2021/08/27 03:05:49;;;;;;;6.25;3.75;;;;;;;16.51;73.67;100074.03;1704801;82;21035;-70
2021/08/27 03:08:20;;;;;;;7.08;3.95;;;;;;;16.51;73.65;100078.84;1695547;82;21217;-67
2021/08/27 03:11:12;;;;;;;6.47;3.85;;;;;;;16.53;73.18;100077.34;1701805;83;21078;-69
2021/08/27 03:14:01;;;;;;;6.37;3.62;;;;;;;16.50;72.99;100081.15;1707249;82;21012;-71
2021/08/27 03:16:28;;;;;;;8.03;4.47;;;;;;;16.42;73.27;100097.09;1705669;82;21071;-71
2021/08/27 03:19:04;;;;;;;10.53;4.58;;;;;;;16.29;73.58;100093.64;1730295;81;21058;-68
2021/08/27 03:21:54;;;;;;;9.03;4.60;;;;;;;16.22;73.77;100099.77;1703915;80;21150;-67
2021/08/27 03:25:26;;;;;;;7.15;4.22;;;;;;;16.21;73.83;100098.95;1794591;78;22635;-72
2021/08/27 03:27:57;;;;;;;8.18;4.65;;;;;;;16.15;73.77;100105.77;1749023;79;21520;-70
2021/08/27 03:30:24;;;;;;;7.83;4.00;;;;;;;16.14;73.94;100113.38;1743534;80;21141;-72
2021/08/27 03:32:54;;;;;;;7.55;4.75;;;;;;;16.16;73.77;100107.41;1745987;79;21585;-69
2021/08/27 03:35:21;;;;;;;6.50;4.08;;;;;;;16.12;73.71;100111.87;1770805;79;21078;-70
2021/08/27 03:37:49;;;;;;;7.00;3.40;;;;;;;16.06;73.80;100114.70;1750065;79;20958;-70
2021/08/27 03:40:16;;;;;;;6.90;4.10;;;;;;;16.05;73.94;100114.87;1696498;82;22215;-68
2021/08/27 03:42:44;;;;;;;6.37;3.52;;;;;;;16.07;73.77;100116.85;1730900;81;21071;-68
2021/08/27 03:45:12;;;;;;;8.93;4.28;;;;;;;16.02;73.85;100115.19;1705188;81;21215;-68
2021/08/27 03:47:41;;;;;;;6.97;4.05;;;;;;;15.99;73.95;100115.04;1716642;81;21616;-68
2021/08/27 03:50:11;;;;;;;7.92;4.55;;;;;;;15.93;74.12;100110.38;1708568;82;21096;-70
2021/08/27 03:52:38;;;;;;;7.60;3.87;;;;;;;15.92;74.19;100114.02;1705172;81;21624;-70
2021/08/27 03:55:05;;;;;;;7.45;4.25;;;;;;;15.91;74.22;100109.72;1655709;83;21129;-68
2021/08/27 03:57:32;;;;;;;8.53;3.65;;;;;;;15.95;74.17;100110.56;1682888;83;21102;-69
2021/08/27 03:59:59;;;;;;;7.05;4.10;;;;;;;15.97;73.89;100105.91;1688546;83;20960;-68
2021/08/27 04:02:27;;;;;;;7.58;4.20;;;;;;;15.96;73.96;100104.24;1686137;83;21572;-69
2021/08/27 04:05:14;;;;;;;8.33;4.20;;;;;;;15.97;74.21;100102.44;1714197;83;21117;-69
2021/08/27 04:07:41;;;;;;;7.25;3.95;;;;;;;15.99;73.97;100103.09;1685574;83;21299;-67
2021/08/27 04:10:10;;;;;;;5.78;3.37;;;;;;;16.00;73.87;100106.57;1682100;83;21611;-69
2021/08/27 04:12:38;;;;;;;7.12;4.00;;;;;;;16.06;73.97;100112.05;1681293;84;21101;-69
2021/08/27 04:15:07;;;;;;;6.72;3.72;;;;;;;16.21;73.79;100111.41;1678133;83;21059;-69
2021/08/27 04:17:33;;;;;;;7.10;4.00;;;;;;;16.28;73.58;100109.73;1682601;83;21032;-67
2021/08/27 04:20:00;;;;;;;7.05;4.42;;;;;;;16.32;73.42;100109.24;1698086;83;21770;-68
2021/08/27 04:22:26;;;;;;;6.50;3.50;;;;;;;16.38;73.24;100108.23;1690660;84;21050;-72
2021/08/27 04:24:53;;;;;;;6.47;3.33;;;;;;;16.44;73.22;100113.71;1685245;82;21315;-67
2021/08/27 04:27:19;;;;;;;5.30;3.20;;;;;;;16.47;72.70;100119.98;1679122;84;21556;-67
2021/08/27 04:29:45;;;;;;;6.58;3.30;;;;;;;16.50;72.59;100120.98;1679912;83;21066;-68
2021/08/27 04:32:12;;;;;;;5.92;3.40;;;;;;;16.51;72.13;100121.33;1733378;81;21148;-68
2021/08/27 04:34:38;;;;;;;8.03;3.50;;;;;;;16.50;71.82;100117.00;1728182;82;21035;-68
2021/08/27 04:37:05;;;;;;;7.30;3.12;;;;;;;16.50;72.03;100118.33;1727751;81;21014;-68
2021/08/27 04:39:31;;;;;;;6.12;3.50;;;;;;;16.56;72.04;100117.33;1735146;82;21047;-68
2021/08/27 04:41:58;;;;;;;5.87;3.20;;;;;;;16.56;71.78;100118.66;1712096;82;21071;-67
2021/08/27 04:44:25;;;;;;;5.85;2.92;;;;;;;16.53;71.90;100124.64;1674615;83;21127;-66
2021/08/27 04:46:51;;;;;;;5.83;2.92;;;;;;;16.58;71.83;100127.31;1673545;83;21082;-67
2021/08/27 04:49:18;;;;;;;5.50;2.77;;;;;;;16.65;71.96;100115.82;1709143;82;21099;-67
2021/08/27 04:51:45;;;;;;;5.80;3.10;;;;;;;16.82;71.81;100106.49;1729360;81;21054;-73
2021/08/27 04:54:13;;;;;;;8.70;3.92;;;;;;;16.99;71.25;100118.75;1728771;81;21058;-70
2021/08/27 04:56:40;;;;;;;8.33;3.35;;;;;;;17.02;70.69;100113.61;1725542;81;22434;-68
2021/08/27 04:59:06;;;;;;;5.55;2.87;;;;;;;17.04;70.79;100119.06;1733040;81;21086;-70
2021/08/27 05:01:33;;;;;;;6.62;3.02;;;;;;;17.14;70.57;100115.39;1689419;83;21067;-68
2021/08/27 05:04:00;;;;;;;5.25;2.92;;;;;;;17.26;70.09;100117.99;1708456;81;21692;-72
2021/08/27 05:06:26;;;;;;;6.12;3.33;;;;;;;17.38;69.69;100115.77;1678371;83;21114;-69
2021/08/27 05:08:52;;;;;;;5.58;3.40;;;;;;;17.43;69.53;100110.77;1717720;80;22549;-71
2021/08/27 05:11:19;;;;;;;6.17;3.52;;;;;;;17.43;68.97;100110.28;1729266;81;21050;-69
2021/08/27 05:13:45;;;;;;;5.95;2.92;;;;;;;17.34;68.84;100105.17;1729442;82;22118;-69
2021/08/27 05:16:11;;;;;;;5.50;2.80;;;;;;;17.23;69.20;100101.05;1725783;81;21106;-68
2021/08/27 05:18:38;;;;;;;6.10;3.33;;;;;;;17.21;69.46;100114.52;1671882;83;21573;-68
2021/08/27 05:21:06;;;;;;;5.85;2.92;;;;;;;17.17;69.54;100113.22;1703896;82;21230;-68
2021/08/27 05:23:32;;;;;;;5.85;3.00;;;;;;;17.17;69.90;100118.53;1707385;82;21091;-69
2021/08/27 05:25:59;;;;;;;8.10;3.55;;;;;;;17.16;70.17;100115.53;1700831;82;21043;-71
2021/08/27 05:28:25;;;;;;;6.30;3.52;;;;;;;17.18;70.21;100109.56;1727266;81;21608;-68
2021/08/27 05:30:51;;;;;;;5.92;3.00;;;;;;;17.14;69.96;100113.55;1734069;81;21085;-69
2021/08/27 05:33:17;;;;;;;5.33;2.90;;;;;;;17.16;69.93;100116.86;1734157;80;22625;-70
2021/08/27 05:35:44;;;;;;;6.45;3.40;;;;;;;17.24;69.69;100118.16;1707158;82;21043;-69
2021/08/27 05:38:10;;;;;;;4.80;2.62;;;;;;;17.29;69.72;100120.31;1727890;82;22288;-67
2021/08/27 05:40:37;;;;;;;5.60;2.75;;;;;;;17.35;69.90;100118.78;1672247;83;21057;-70
2021/08/27 05:43:03;;;;;;;5.72;2.92;;;;;;;17.40;69.72;100119.08;1649002;85;21158;-69
2021/08/27 05:45:29;;;;;;;5.83;3.20;;;;;;;17.40;69.58;100119.08;1730677;81;23362;-70
2021/08/27 05:47:55;;;;;;;5.10;2.83;;;;;;;17.42;69.81;100124.57;1715199;82;21025;-69
2021/08/27 05:50:22;;;;;;;7.85;3.58;;;;;;;17.48;69.60;100130.20;1735257;81;21030;-69
2021/08/27 05:52:48;;;;;;;6.78;3.45;;;;;;;17.51;69.06;100124.02;1732641;81;21063;-70
2021/08/27 05:55:15;;;;;;;5.15;2.90;;;;;;;17.57;69.59;100122.00;1701580;81;21169;-68
2021/08/27 05:57:41;;;;;;;5.62;3.15;;;;;;;17.60;69.22;100121.66;1734589;81;21057;-70
2021/08/27 06:00:09;;;;;;;6.30;3.50;;;;;;;17.54;69.19;100123.67;1728003;81;21047;-70
2021/08/27 06:02:35;;;;;;;5.97;3.17;;;;;;;17.46;69.37;100125.05;1731381;81;21047;-69
2021/08/27 06:05:01;;;;;;;6.28;2.83;;;;;;;17.46;69.54;100121.87;1732604;81;21459;-69
2021/08/27 06:07:28;;;;;;;5.60;2.83;;;;;;;17.51;69.43;100128.01;1734374;81;21042;-69
2021/08/27 06:09:54;;;;;;;5.95;3.08;;;;;;;17.56;69.74;100124.84;1730309;81;21070;-69
2021/08/27 06:12:20;;;;;;;6.00;2.98;;;;;;;17.60;69.78;100126.13;1732927;81;21047;-70
2021/08/27 06:14:47;;;;;;;7.97;3.33;;;;;;;17.60;69.81;100130.97;1730923;81;21052;-68
2021/08/27 06:17:13;;;;;;;4.90;2.80;;;;;;;17.59;69.65;100131.14;1737410;81;21061;-71
2021/08/27 06:19:39;;;;;;;5.33;3.08;;;;;;;17.55;70.16;100135.98;1732659;81;21058;-68
2021/08/27 06:22:06;;;;;;;6.20;3.27;;;;;;;17.56;70.10;100128.83;1675096;83;21115;-70
2021/08/27 06:24:32;;;;;;;6.15;3.20;;;;;;;17.63;70.04;100123.97;1677949;83;21065;-71
2021/08/27 06:26:59;;;;;;;6.15;3.80;;;;;;;17.74;69.91;100132.05;1728408;81;22186;-68
2021/08/27 06:29:25;;;;;;;6.53;3.75;;;;;;;17.83;69.96;100129.64;1725546;82;21098;-69
2021/08/27 06:31:51;;;;;;;6.40;3.25;;;;;;;17.90;69.42;100120.99;1728821;81;21113;-68
2021/08/27 06:34:18;;;;;;;6.12;3.33;;;;;;;17.95;69.17;100123.44;1707869;82;22108;-68
2021/08/27 06:36:44;;;;;;;6.10;2.72;;;;;;;18.01;68.69;100122.73;1725255;81;21041;-69
2021/08/27 06:39:10;;;;;;;6.92;3.42;;;;;;;18.09;68.86;100125.86;1662152;83;21167;-68
2021/08/27 06:41:38;;;;;;;5.10;2.47;;;;;;;18.23;68.64;100115.44;1724971;81;21604;-70
2021/08/27 06:44:04;;;;;;;4.75;2.72;;;;;;;18.38;67.72;100122.44;1723806;81;21546;-70
2021/08/27 06:46:30;;;;;;;4.95;2.90;;;;;;;18.47;67.51;100126.36;1713963;82;21079;-68
2021/08/27 06:48:57;;;;;;;6.60;2.83;;;;;;;18.54;67.61;100132.13;1666431;83;21043;-68
2021/08/27 06:51:24;;;;;;;7.20;3.00;;;;;;;18.63;67.04;100130.73;1727424;81;21047;-68
2021/08/27 06:53:53;;;;;;;6.62;2.87;;;;;;;18.69;66.24;100133.98;1701000;81;21315;-68
2021/08/27 06:56:18;;;;;;;5.22;3.12;;;;;;;18.74;65.84;100139.59;1726306;81;21075;-68
2021/08/27 06:58:46;;;;;;;6.72;3.05;;;;;;;18.77;65.61;100138.41;1720772;81;21138;-70
2021/08/27 07:01:12;;;;;;;6.10;2.65;;;;;;;18.79;65.42;100138.53;1710917;81;21640;-71
2021/08/27 07:03:38;;;;;;;5.87;3.00;;;;;;;18.82;65.37;100139.51;1722671;82;21081;-70
2021/08/27 07:06:04;;;;;;;4.85;2.52;;;;;;;18.89;65.79;100140.45;1720662;82;21445;-69
2021/08/27 07:08:31;;;;;;;6.70;3.10;;;;;;;19.00;64.67;100140.52;1707726;81;21149;-70
2021/08/27 07:10:57;;;;;;;7.45;3.05;;;;;;;19.10;64.28;100145.58;1721349;82;22017;-70
2021/08/27 07:13:23;;;;;;;7.65;3.42;;;;;;;19.17;63.89;100144.34;1646047;85;21051;-69
2021/08/27 07:15:50;;;;;;;6.17;2.55;;;;;;;19.24;64.30;100153.25;1701166;82;21067;-69
2021/08/27 07:18:17;;;;;;;5.03;2.62;;;;;;;19.32;64.33;100151.81;1730309;81;21067;-69
2021/08/27 07:20:43;;;;;;;4.47;1.80;;;;;;;19.41;63.89;100151.20;1728662;82;21106;-69
2021/08/27 07:23:12;;;;;;;5.53;2.22;;;;;;;19.43;63.86;100155.84;1704495;82;21353;-69
2021/08/27 07:25:39;;;;;;;5.22;2.22;;;;;;;19.53;63.02;100158.22;1694079;82;21105;-69
2021/08/27 07:28:05;;;;;;;7.40;2.52;;;;;;;19.68;61.86;100167.02;1714216;82;21060;-69
2021/08/27 07:30:33;;;;;;;7.80;2.98;;;;;;;19.74;61.80;100164.12;1709746;82;21658;-70
2021/08/27 07:32:59;;;;;;;4.92;2.25;;;;;;;19.78;61.52;100154.74;1708063;82;21118;-68
2021/08/27 07:35:25;;;;;;;4.83;2.12;;;;;;;19.83;61.68;100167.83;1706648;82;21781;-71
2021/08/27 07:37:52;;;;;;;4.42;2.20;;;;;;;19.88;62.11;100169.95;1707853;82;21063;-69
2021/08/27 07:40:18;;;;;;;4.53;2.15;;;;;;;19.82;61.77;100166.20;1710334;82;21113;-70
2021/08/27 07:42:44;;;;;;;7.00;2.37;;;;;;;19.76;62.50;100174.95;1711349;82;21101;-70
2021/08/27 07:45:12;;;;;;;7.42;2.58;;;;;;;19.79;62.91;100170.58;1708883;82;21487;-71
2021/08/27 07:47:39;;;;;;;4.92;2.67;;;;;;;19.92;63.36;100175.73;1685041;82;21118;-71
2021/08/27 07:50:06;;;;;;;5.75;2.60;;;;;;;20.08;63.34;100175.49;1685816;82;21498;-70
2021/08/27 07:52:33;;;;;;;6.40;2.60;;;;;;;20.25;61.41;100181.92;1710166;82;21110;-69
2021/08/27 07:55:01;;;;;;;5.53;2.50;;;;;;;20.34;60.30;100190.11;1701668;82;21028;-71
2021/08/27 07:57:28;;;;;;;5.83;1.98;;;;;;;20.37;60.34;100184.39;1716439;82;21090;-72
2021/08/27 07:59:55;;;;;;;4.30;2.35;;;;;;;20.43;60.32;100186.31;1707408;82;21078;-68
2021/08/27 08:02:23;;;;;;;7.25;2.17;;;;;;;20.49;60.74;100189.53;1679761;82;21580;-71
2021/08/27 08:04:51;;;;;;;7.12;2.75;;;;;;;20.53;60.25;100185.47;1710929;82;21136;-72
2021/08/27 08:07:19;;;;;;;5.08;2.37;;;;;;;20.53;59.99;100188.14;1706745;82;21050;-70
2021/08/27 08:09:47;;;;;;;6.12;2.67;;;;;;;20.57;60.21;100185.38;1710275;82;22248;-67
2021/08/27 08:12:16;;;;;;;4.33;2.10;;;;;;;20.63;59.16;100183.83;1699967;82;21853;-68
2021/08/27 08:14:44;;;;;;;5.42;2.02;;;;;;;20.69;58.49;100180.89;1711059;82;22221;-68
2021/08/27 08:17:13;;;;;;;4.25;1.82;;;;;;;20.77;58.46;100189.58;1715215;82;21537;-67
2021/08/27 08:19:41;;;;;;;5.33;2.02;;;;;;;20.82;57.69;100180.98;1714427;82;21658;-67
2021/08/27 08:22:09;;;;;;;4.90;2.30;;;;;;;20.83;57.55;100181.31;1713989;82;22240;-68
2021/08/27 08:24:37;;;;;;;6.20;2.05;;;;;;;20.84;57.52;100181.61;1714911;82;21850;-69
2021/08/27 08:27:04;;;;;;;4.00;1.77;;;;;;;20.87;57.88;100187.09;1701631;82;21498;-67
2021/08/27 08:29:32;;;;;;;4.80;1.90;;;;;;;20.95;57.69;100187.77;1700852;83;21020;-67
2021/08/27 08:31:59;;;;;;;4.47;1.67;;;;;;;21.08;57.49;100184.36;1700244;84;21054;-70
2021/08/27 08:34:25;;;;;;;3.60;1.90;;;;;;;21.18;57.20;100183.98;1637166;85;21138;-68
2021/08/27 08:36:52;;;;;;;3.87;1.82;;;;;;;21.27;57.38;100182.80;1673067;83;21325;-68
2021/08/27 08:39:18;;;;;;;4.37;2.00;;;;;;;21.39;57.14;100187.08;1692675;83;21133;-69
2021/08/27 08:41:47;;;;;;;6.78;2.55;;;;;;;21.48;56.77;100190.45;1695962;84;21083;-69
2021/08/27 08:44:15;;;;;;;4.72;2.12;;;;;;;21.54;56.33;100192.86;1702007;83;21115;-68
2021/08/27 08:46:45;;;;;;;4.72;1.62;;;;;;;21.58;55.85;100188.22;1700938;82;21061;-68
2021/08/27 08:49:13;;;;;;;3.90;1.80;;;;;;;21.60;55.72;100186.19;1667129;83;21131;-69
2021/08/27 08:51:44;;;;;;;5.45;1.98;;;;;;;21.68;55.70;100195.36;1632135;85;21147;-69
2021/08/27 08:54:13;;;;;;;3.75;1.62;;;;;;;21.75;55.44;100194.05;1647861;85;21164;-68
2021/08/27 08:56:43;;;;;;;5.17;1.82;;;;;;;21.76;55.19;100191.69;1669103;84;21019;-69
2021/08/27 08:59:10;;;;;;;4.30;1.77;;;;;;;21.80;55.79;100191.59;1634201;85;21142;-70
2021/08/27 09:01:38;;;;;;;9.28;2.50;;;;;;;21.86;55.90;100198.02;1698263;83;23055;-67
2021/08/27 09:04:06;;;;;;;4.33;2.02;;;;;;;21.94;55.44;100193.81;1668176;84;21538;-67
2021/08/27 09:06:34;;;;;;;4.60;2.37;;;;;;;21.96;55.35;100198.45;1702207;83;21241;-68
2021/08/27 09:09:02;;;;;;;4.58;2.37;;;;;;;21.97;54.91;100202.80;1695721;83;21067;-65
2021/08/27 09:11:30;;;;;;;4.58;2.12;;;;;;;21.96;55.26;100202.47;1616368;86;21071;-66
2021/08/27 09:14:04;;;;;;;4.10;1.80;;;;;;;21.98;54.86;100198.25;1698796;83;21181;-68
2021/08/27 09:16:33;;;;;;;4.75;2.02;;;;;;;22.00;54.15;100198.87;1634110;85;21098;-68
2021/08/27 09:19:00;;;;;;;5.45;2.00;;;;;;;22.00;53.95;100198.87;1666691;83;21867;-67
2021/08/27 09:21:40;;;;;;;4.62;1.98;;;;;;;21.96;54.02;100198.45;1675125;83;21857;-69
2021/08/27 09:24:22;;;;;;;4.85;1.87;;;;;;;21.97;54.57;100201.45;1665625;83;21734;-66
2021/08/27 09:27:00;;;;;;;4.25;1.95;;;;;;;22.02;53.66;100202.16;1658608;84;21219;-68
2021/08/27 09:29:40;;;;;;;5.17;2.15;;;;;;;22.04;53.71;100200.95;1680913;82;21063;-68
2021/08/27 09:32:30;;;;;;;5.08;2.20;;;;;;;22.08;53.67;100202.70;1708092;82;21235;-67
2021/08/27 09:35:14;;;;;;;7.45;2.27;;;;;;;22.11;53.48;100204.13;1701412;82;21353;-68
2021/08/27 09:37:50;;;;;;;4.67;1.90;;;;;;;22.11;53.41;100200.96;1713897;82;21075;-67
2021/08/27 09:40:29;;;;;;;4.67;1.80;;;;;;;22.15;53.04;100201.38;1713497;82;21323;-68
2021/08/27 09:42:57;;;;;;;4.83;2.35;;;;;;;22.18;52.79;100198.30;1706787;82;21083;-70
2021/08/27 09:45:37;;;;;;;4.30;2.17;;;;;;;22.18;52.92;100200.45;1712587;82;21075;-70
2021/08/27 09:48:07;;;;;;;5.12;2.25;;;;;;;22.20;52.46;100204.27;1649806;83;21127;-67
2021/08/27 09:50:36;;;;;;;4.55;2.12;;;;;;;22.24;52.17;100203.66;1706322;82;21029;-68
2021/08/27 09:53:08;;;;;;;4.10;2.08;;;;;;;22.31;51.95;100198.84;1712861;82;21186;-67
2021/08/27 09:55:36;;;;;;;4.55;2.00;;;;;;;22.40;52.77;100207.02;1679552;83;21052;-67
2021/08/27 09:58:10;;;;;;;5.20;2.02;;;;;;;22.46;52.13;100199.50;1670971;82;21494;-67
2021/08/27 10:00:39;;;;;;;4.15;2.08;;;;;;;22.49;51.70;100201.74;1709678;82;21088;-68
2021/08/27 10:03:20;;;;;;;4.67;2.00;;;;;;;22.52;51.48;100200.52;1711216;82;21087;-66
2021/08/27 10:05:49;;;;;;;7.15;2.27;;;;;;;22.52;51.39;100197.84;1712385;82;21144;-67
2021/08/27 10:08:22;;;;;;;4.22;1.92;;;;;;;22.51;51.52;100195.69;1680386;82;21064;-68
2021/08/27 10:10:56;;;;;;;4.83;2.17;;;;;;;22.54;51.68;100201.13;1712875;82;21127;-68
2021/08/27 10:13:24;;;;;;;4.08;1.92;;;;;;;22.51;52.04;100202.87;1704957;82;21678;-68
2021/08/27 10:15:52;;;;;;;5.20;1.90;;;;;;;22.54;53.04;100202.47;1683878;83;21649;-69
2021/08/27 10:18:19;;;;;;;4.15;2.15;;;;;;;22.62;52.57;100201.75;1710963;82;21132;-68
2021/08/27 10:20:46;;;;;;;5.03;2.30;;;;;;;22.75;51.82;100204.95;1675482;83;20992;-69
2021/08/27 10:23:16;;;;;;;4.40;1.90;;;;;;;22.79;51.19;100199.47;1708627;82;21108;-69
2021/08/27 10:25:43;;;;;;;5.70;1.92;;;;;;;22.88;51.44;100196.08;1710022;82;21198;-69
2021/08/27 10:28:10;;;;;;;4.87;2.30;;;;;;;22.95;50.58;100192.05;1713229;82;21112;-65
2021/08/27 10:30:53;;;;;;;6.87;2.10;;;;;;;23.02;52.19;100179.43;1705168;82;21142;-69
2021/08/27 10:33:44;;;;;;;4.33;2.20;;;;;;;23.11;51.34;100191.61;1711586;82;21116;-67
2021/08/27 10:36:25;;;;;;;4.30;1.90;;;;;;;23.13;50.57;100186.03;1709866;82;21634;-64
2021/08/27 10:38:55;;;;;;;5.45;2.37;;;;;;;23.07;50.26;100174.30;1711014;82;21044;-69
2021/08/27 10:41:39;;;;;;;6.78;2.22;;;;;;;23.00;50.45;100185.53;1682737;83;21737;-66
2021/08/27 10:44:10;;;;;;;3.72;1.70;;;;;;;22.96;50.93;100178.42;1710100;82;21153;-66
2021/08/27 10:46:52;;;;;;;5.17;2.17;;;;;;;22.92;51.17;100182.54;1711322;82;21413;-67
2021/08/27 10:49:21;;;;;;;4.65;2.25;;;;;;;22.90;51.94;100179.77;1678060;82;21112;-68
2021/08/27 10:51:50;;;;;;;4.00;1.77;;;;;;;22.90;51.14;100175.75;1706955;82;20990;-67
2021/08/27 10:54:17;;;;;;;4.50;1.92;;;;;;;22.93;51.11;100171.28;1707080;82;21082;-66
2021/08/27 10:56:51;;;;;;;6.15;2.25;;;;;;;22.96;51.19;100156.96;1711788;82;21458;-66
2021/08/27 10:59:27;;;;;;;4.53;2.00;;;;;;;23.03;51.71;100163.63;1702686;82;21048;-67
2021/08/27 11:02:01;;;;;;;6.03;2.67;;;;;;;23.08;51.89;100167.91;1675606;82;21108;-67
2021/08/27 11:04:31;;;;;;;7.90;4.20;;;;;;;23.14;51.32;100161.67;1687567;82;21494;-65
2021/08/27 11:07:05;;;;;;;5.15;2.60;;;;;;;23.23;51.80;100164.12;1710454;82;21068;-67
2021/08/27 11:09:36;;;;;;;5.55;2.27;;;;;;;23.33;51.39;100162.66;1708520;82;22404;-68
2021/08/27 11:12:10;;;;;;;4.35;2.00;;;;;;;23.42;50.45;100157.88;1703340;82;21542;-65
2021/08/27 11:14:39;;;;;;;4.33;1.80;;;;;;;23.56;50.29;100157.28;1706965;82;21056;-67
2021/08/27 11:17:07;;;;;;;4.00;1.75;;;;;;;23.70;49.97;100154.86;1705877;82;21125;-66
2021/08/27 11:19:59;;;;;;;4.03;2.12;;;;;;;23.80;49.23;100154.89;1650481;85;21135;-65
2021/08/27 11:22:31;;;;;;;5.45;2.87;;;;;;;23.86;48.22;100158.10;1622942;85;21110;-66
2021/08/27 11:25:16;;;;;;;4.22;1.95;;;;;;;23.88;48.12;100164.89;1656154;85;21028;-65
2021/08/27 11:27:38;;;;;;;6.00;2.20;;;;;;;23.90;47.98;100161.98;1686881;81;21047;-66
2021/08/27 11:30:32;;;;;;;5.28;2.42;;;;;;;23.88;47.80;100162.20;1715757;81;21036;-65
2021/08/27 11:32:59;;;;;;;4.40;2.02;;;;;;;23.81;47.77;100154.67;1704573;81;21106;-66
2021/08/27 11:35:26;;;;;;;4.22;2.10;;;;;;;23.79;47.84;100163.98;1690181;82;21889;-65
2021/08/27 11:38:04;;;;;;;4.55;2.33;;;;;;;23.81;48.99;100156.55;1724308;81;21965;-66
2021/08/27 11:40:30;;;;;;;5.12;2.40;;;;;;;23.88;49.79;100158.70;1711321;81;21417;-65